San Antonio North's Hourly Summary for Saturday, May 12, 2018
Hour Temp
(f)
RH
(%)
Solar Rad.
(MJ/m2)
Rainfall
(in)
Wind
(mph)
5/12/2018 12:00 AM 73 77 0 0 1.58
5/12/2018 1:00 AM 72 85 0 0 1.6
5/12/2018 2:00 AM 71 87 0 0 1.63
5/12/2018 3:00 AM 70 89 0 0 1.31
5/12/2018 4:00 AM 71 86 0 0 1.73
5/12/2018 5:00 AM 71 85 0 0 1.67
5/12/2018 6:00 AM 70 85 0 0 0.77
5/12/2018 7:00 AM 70 87 0.01 0 0.7
5/12/2018 8:00 AM 70 87 0.13 0 1.25
5/12/2018 9:00 AM 73 80 0.45 0 1.62
5/12/2018 10:00 AM 77 64 1.67 0 1.76
5/12/2018 11:00 AM 81 58 2.06 0 2.26
5/12/2018 12:00 PM 82 51 2.19 0 1.7
5/12/2018 1:00 PM 86 46 3.27 0 1.58
5/12/2018 2:00 PM 89 39 3.42 0 1.94
5/12/2018 3:00 PM 90 35 2.95 0 1.76
5/12/2018 4:00 PM 92 32 3.31 0 1.96
5/12/2018 5:00 PM 92 33 2.36 0 2.06
5/12/2018 6:00 PM 91 32 1.52 0 1.88
5/12/2018 7:00 PM 90 36 1.06 0 2.15
5/12/2018 8:00 PM 87 40 0.4 0 2.46
5/12/2018 9:00 PM 83 47 0.01 0 2.42
5/12/2018 10:00 PM 79 58 0 0 2.5
5/12/2018 11:00 PM 76 69 0 0 2.43
Data Summary 79 62 24.81 0.00 1.78